Time;durP1;ratioP1;P1;durP2;ratioP2;P2;SDS_P1;SDS_P2;PMS_P1;PMS_P2;Temp;Humidity;BMP_temperature;BMP_pressure;BME280_temperature;BME280_humidity;BME280_pressure;Samples;Min_cycle;Max_cycle;Signal;HPM_P1;HPM_P2
2020/12/23 00:04:52;;;;;;;6.72;5.40;;;14.10;99.90;;;;;;4833518;29;20046;-73
2020/12/23 00:07:17;;;;;;;6.68;5.25;;;14.10;99.90;;;;;;4832527;29;20027;-70
2020/12/23 00:09:44;;;;;;;6.25;5.07;;;14.10;99.90;;;;;;4832003;29;20058;-73
2020/12/23 00:12:11;;;;;;;5.22;4.57;;;14.10;99.90;;;;;;4829593;29;20030;-72
2020/12/23 00:14:37;;;;;;;8.43;4.68;;;14.10;99.90;;;;;;4830254;29;20430;-72
2020/12/23 00:17:03;;;;;;;4.55;3.90;;;14.10;99.90;;;;;;4827360;29;20138;-70
2020/12/23 00:19:28;;;;;;;4.72;4.00;;;14.10;99.90;;;;;;4825591;29;20037;-72
2020/12/23 00:21:54;;;;;;;5.57;4.30;;;14.10;99.90;;;;;;4827719;29;20038;-70
2020/12/23 00:24:20;;;;;;;5.03;3.80;;;14.10;99.90;;;;;;4816807;29;20052;-69
2020/12/23 00:26:45;;;;;;;4.95;4.18;;;14.10;99.90;;;;;;4834603;29;20034;-70
2020/12/23 00:29:11;;;;;;;6.28;4.20;;;14.10;99.90;;;;;;4834468;29;20388;-71
2020/12/23 00:34:59;;;;;;;4.25;3.83;;;14.20;99.90;;;;;;4833916;29;20130;-69
2020/12/23 00:37:25;;;;;;;5.00;4.50;;;14.20;99.90;;;;;;4834213;29;20475;-71
2020/12/23 00:39:51;;;;;;;5.35;4.05;;;14.20;99.90;;;;;;4834537;29;20034;-70
2020/12/23 00:42:20;;;;;;;6.10;5.20;;;14.20;99.90;;;;;;4834710;29;20050;-70
2020/12/23 00:44:46;;;;;;;5.38;4.50;;;14.20;99.90;;;;;;4834711;29;20455;-70
2020/12/23 00:47:11;;;;;;;5.60;4.50;;;14.20;99.90;;;;;;4834935;29;20031;-71
2020/12/23 00:49:37;;;;;;;6.00;5.50;;;14.20;99.90;;;;;;4834849;29;20034;-71
2020/12/23 00:52:03;;;;;;;6.75;6.05;;;14.20;99.90;;;;;;4833313;29;20031;-70
2020/12/23 00:54:28;;;;;;;7.32;6.63;;;14.20;99.90;;;;;;4832662;29;20066;-70
2020/12/23 00:56:54;;;;;;;7.78;6.18;;;14.20;99.90;;;;;;4831736;29;20027;-70
2020/12/23 00:59:19;;;;;;;7.25;5.97;;;14.20;99.90;;;;;;4833729;29;20114;-72
2020/12/23 01:05:07;;;;;;;6.63;5.85;;;14.20;99.90;;;;;;4836560;29;20037;-73
2020/12/23 01:07:34;;;;;;;6.25;5.65;;;14.20;99.90;;;;;;4836629;29;20023;-71
2020/12/23 01:09:59;;;;;;;6.25;5.65;;;14.20;99.90;;;;;;4836711;29;20035;-70
2020/12/23 01:12:25;;;;;;;5.38;4.88;;;14.20;99.90;;;;;;4836585;29;20047;-69
2020/12/23 01:14:51;;;;;;;6.25;5.65;;;14.20;99.90;;;;;;4836848;29;20030;-72
2020/12/23 01:20:40;;;;;;;6.35;5.03;;;14.20;99.90;;;;;;4834080;29;20132;-72
2020/12/23 01:23:05;;;;;;;5.85;4.10;;;14.20;99.90;;;;;;4835286;29;20463;-71
2020/12/23 01:25:31;;;;;;;5.55;4.00;;;14.20;99.90;;;;;;4835258;29;20048;-73
2020/12/23 01:27:57;;;;;;;4.55;3.90;;;14.20;99.90;;;;;;4831088;29;20109;-70
2020/12/23 01:30:23;;;;;;;4.20;3.60;;;14.20;99.90;;;;;;4827155;29;20065;-72
2020/12/23 01:32:48;;;;;;;3.90;3.53;;;14.20;99.90;;;;;;4827242;29;20059;-70
2020/12/23 01:35:14;;;;;;;3.88;3.38;;;14.20;99.90;;;;;;4826977;29;20054;-71
2020/12/23 01:37:40;;;;;;;3.80;3.20;;;14.20;99.90;;;;;;4826711;29;20070;-71
2020/12/23 01:40:05;;;;;;;5.10;3.10;;;14.20;99.90;;;;;;4826875;29;20069;-72
2020/12/23 01:42:33;;;;;;;5.25;2.97;;;14.20;99.90;;;;;;4827108;29;20041;-71
2020/12/23 01:45:00;;;;;;;3.42;2.80;;;14.20;99.90;;;;;;4827116;29;20037;-70
2020/12/23 01:50:49;;;;;;;3.42;2.58;;;14.20;99.90;;;;;;4826930;29;20080;-70
2020/12/23 01:53:18;;;;;;;2.10;1.90;;;14.20;99.90;;;;;;4826912;29;20041;-69
2020/12/23 01:55:45;;;;;;;3.83;2.30;;;14.20;99.90;;;;;;4826919;29;20030;-70
2020/12/23 01:58:12;;;;;;;3.25;2.05;;;14.20;99.90;;;;;;4826747;29;20030;-70
2020/12/23 02:00:39;;;;;;;2.47;2.00;;;14.20;99.90;;;;;;4826602;29;20049;-70
2020/12/23 02:03:09;;;;;;;3.33;1.70;;;14.20;99.90;;;;;;4826650;29;20027;-69
2020/12/23 02:05:35;;;;;;;1.80;1.25;;;14.20;99.90;;;;;;4826652;29;20033;-70
2020/12/23 02:08:01;;;;;;;1.95;1.40;;;14.20;99.90;;;;;;4826718;29;20038;-68
2020/12/23 02:10:27;;;;;;;2.42;1.10;;;14.20;99.90;;;;;;4826659;29;20361;-69
2020/12/23 02:12:54;;;;;;;1.52;1.20;;;14.20;99.90;;;;;;4826188;29;20030;-70
2020/12/23 02:15:19;;;;;;;2.40;1.33;;;14.20;99.90;;;;;;4825870;29;20038;-69
2020/12/23 02:17:47;;;;;;;1.48;0.95;;;14.20;99.90;;;;;;4826037;29;20030;-72
2020/12/23 02:20:16;;;;;;;1.50;1.00;;;14.10;99.90;;;;;;4826397;29;20037;-69
2020/12/23 02:22:43;;;;;;;1.70;0.85;;;14.20;99.90;;;;;;4826057;29;20034;-71
2020/12/23 02:25:09;;;;;;;1.73;0.80;;;14.20;99.90;;;;;;4826020;29;20488;-67
2020/12/23 02:27:36;;;;;;;1.73;1.00;;;14.10;99.90;;;;;;4825809;29;20065;-69
2020/12/23 02:30:04;;;;;;;2.75;0.80;;;14.20;99.90;;;;;;4825978;29;20464;-70
2020/12/23 02:35:52;;;;;;;1.50;0.80;;;14.10;99.90;;;;;;4824529;29;20106;-71
2020/12/23 02:38:18;;;;;;;1.30;0.60;;;14.20;99.90;;;;;;4825857;29;20117;-70
2020/12/23 02:40:43;;;;;;;2.47;0.60;;;14.20;99.90;;;;;;4825498;29;20055;-70
2020/12/23 02:43:09;;;;;;;1.30;0.68;;;14.10;99.90;;;;;;4825557;29;20041;-69
2020/12/23 02:45:34;;;;;;;0.98;0.63;;;14.20;99.90;;;;;;4825649;29;20038;-71
2020/12/23 02:48:00;;;;;;;2.53;0.60;;;14.20;99.90;;;;;;4825778;29;20035;-70
2020/12/23 02:50:26;;;;;;;1.48;0.90;;;14.20;99.90;;;;;;4825624;29;20035;-71
2020/12/23 02:52:51;;;;;;;1.00;0.60;;;14.20;99.90;;;;;;4825494;29;20054;-71
2020/12/23 02:55:17;;;;;;;0.60;0.60;;;14.20;99.90;;;;;;4825717;29;20035;-71
2020/12/23 02:57:43;;;;;;;1.33;0.80;;;14.20;99.90;;;;;;4825101;29;20027;-70
2020/12/23 03:00:08;;;;;;;2.50;0.52;;;14.20;99.90;;;;;;4824675;29;20514;-70
2020/12/23 03:05:56;;;;;;;3.42;0.80;;;14.20;99.90;;;;;;4824848;29;20041;-72
2020/12/23 03:08:21;;;;;;;3.03;0.60;;;14.10;99.90;;;;;;4824788;29;20023;-71
2020/12/23 03:10:47;;;;;;;2.85;0.80;;;14.10;99.90;;;;;;4808214;29;20030;-72
2020/12/23 03:13:13;;;;;;;1.33;0.65;;;14.10;99.90;;;;;;4824583;29;20091;-72
2020/12/23 03:15:38;;;;;;;2.45;0.70;;;14.10;99.90;;;;;;4824786;29;20026;-71
2020/12/23 03:21:26;;;;;;;1.10;0.50;;;14.10;99.90;;;;;;4824410;29;20526;-72
2020/12/23 03:23:52;;;;;;;1.10;0.50;;;14.00;99.90;;;;;;4824690;29;20030;-70
2020/12/23 03:26:17;;;;;;;2.70;0.70;;;14.00;99.90;;;;;;4824636;29;20527;-71
2020/12/23 03:28:43;;;;;;;1.65;0.50;;;14.00;99.90;;;;;;4823714;29;20038;-69
2020/12/23 03:31:09;;;;;;;1.17;0.70;;;14.00;99.90;;;;;;4824443;29;20365;-70
2020/12/23 03:33:35;;;;;;;1.33;0.50;;;14.00;99.90;;;;;;4824302;29;20030;-69
2020/12/23 03:36:01;;;;;;;1.00;0.65;;;14.00;99.90;;;;;;4824203;29;20063;-69
2020/12/23 03:38:27;;;;;;;1.77;0.60;;;14.00;99.90;;;;;;4824370;29;20057;-69
2020/12/23 03:40:53;;;;;;;1.77;0.60;;;14.00;99.90;;;;;;4824083;29;20471;-70
2020/12/23 03:43:19;;;;;;;0.80;0.43;;;14.00;99.90;;;;;;4824088;29;20080;-70
2020/12/23 03:45:45;;;;;;;2.20;0.40;;;14.00;99.90;;;;;;4824312;29;20438;-73
2020/12/23 03:51:33;;;;;;;1.50;0.50;;;14.00;99.90;;;;;;4824269;29;20111;-72
2020/12/23 03:53:58;;;;;;;0.80;0.43;;;14.00;99.90;;;;;;4824157;29;20034;-71
2020/12/23 03:56:24;;;;;;;1.52;0.50;;;14.00;99.90;;;;;;4823821;29;20038;-73
2020/12/23 03:58:49;;;;;;;0.85;0.60;;;14.00;99.90;;;;;;4823859;29;20060;-71
2020/12/23 04:01:15;;;;;;;2.83;0.57;;;14.00;99.90;;;;;;4823641;29;20046;-72
2020/12/23 04:03:41;;;;;;;1.63;0.60;;;14.00;99.90;;;;;;4824087;29;20109;-70
2020/12/23 04:06:06;;;;;;;1.35;0.70;;;14.00;99.90;;;;;;4824092;29;20360;-71
2020/12/23 04:08:32;;;;;;;2.17;0.60;;;14.00;99.90;;;;;;4823740;29;20030;-69
2020/12/23 04:10:58;;;;;;;1.50;0.68;;;14.00;99.90;;;;;;4824075;29;20038;-71
2020/12/23 04:13:23;;;;;;;1.38;0.82;;;14.00;99.90;;;;;;4823973;29;20083;-73
2020/12/23 04:15:49;;;;;;;1.77;0.77;;;14.00;99.90;;;;;;4823697;29;20246;-73
2020/12/23 04:21:37;;;;;;;2.60;1.38;;;14.00;99.90;;;;;;4823528;29;20103;-73
2020/12/23 04:24:02;;;;;;;3.25;1.40;;;14.00;99.90;;;;;;4823568;29;20022;-72
2020/12/23 04:26:28;;;;;;;4.43;1.75;;;14.00;99.90;;;;;;4823596;29;20026;-71
2020/12/23 04:28:54;;;;;;;4.68;2.00;;;14.00;99.90;;;;;;4823781;29;20492;-72
2020/12/23 04:31:19;;;;;;;4.93;2.30;;;14.00;99.90;;;;;;4823530;29;20373;-72
2020/12/23 04:33:45;;;;;;;5.75;2.45;;;14.00;99.90;;;;;;4823521;29;20066;-73
2020/12/23 04:36:10;;;;;;;3.72;2.42;;;14.00;99.90;;;;;;4823431;29;20082;-69
2020/12/23 04:38:36;;;;;;;5.88;2.22;;;14.00;99.90;;;;;;4823736;29;20058;-72
2020/12/23 04:41:02;;;;;;;5.38;2.10;;;14.00;99.90;;;;;;4826808;29;20462;-70
2020/12/23 04:43:28;;;;;;;3.00;1.60;;;14.00;99.90;;;;;;4826901;29;20113;-71
2020/12/23 04:45:54;;;;;;;5.10;1.30;;;14.00;99.90;;;;;;4826999;29;20110;-71
2020/12/23 04:51:43;;;;;;;4.90;1.15;;;14.00;99.90;;;;;;4827029;29;20407;-70
2020/12/23 04:54:09;;;;;;;2.40;1.17;;;14.10;99.90;;;;;;4826962;29;20026;-72
2020/12/23 04:56:35;;;;;;;2.63;0.80;;;14.10;99.90;;;;;;4826662;29;20372;-69
2020/12/23 04:59:03;;;;;;;2.75;0.80;;;14.00;99.90;;;;;;4826911;29;20117;-71
2020/12/23 05:01:29;;;;;;;1.30;0.80;;;14.00;99.90;;;;;;4826705;29;20049;-70
2020/12/23 05:03:56;;;;;;;1.48;0.68;;;14.00;99.90;;;;;;4826663;29;20052;-71
2020/12/23 05:06:23;;;;;;;1.10;0.70;;;14.10;99.90;;;;;;4826727;29;20030;-70
2020/12/23 05:08:49;;;;;;;1.55;0.60;;;14.10;99.90;;;;;;4826580;29;20065;-71
2020/12/23 05:11:15;;;;;;;1.92;0.60;;;14.10;99.90;;;;;;4826643;29;20107;-70
2020/12/23 05:13:42;;;;;;;1.40;0.63;;;14.10;99.90;;;;;;4826571;29;20030;-70
2020/12/23 05:16:09;;;;;;;5.97;0.85;;;14.10;99.90;;;;;;4826241;29;20041;-70
2020/12/23 05:21:58;;;;;;;1.70;0.68;;;14.10;99.90;;;;;;4826243;29;20077;-68
2020/12/23 05:24:25;;;;;;;2.10;0.80;;;14.10;99.90;;;;;;4826174;29;20033;-68
2020/12/23 05:26:56;;;;;;;2.65;0.70;;;14.10;99.90;;;;;;4826151;29;20034;-71
2020/12/23 05:29:23;;;;;;;2.22;0.70;;;14.10;99.90;;;;;;4826127;29;20033;-69
2020/12/23 05:31:49;;;;;;;1.08;0.68;;;14.10;99.90;;;;;;4826224;29;20461;-69
2020/12/23 05:34:14;;;;;;;1.65;0.70;;;14.10;99.90;;;;;;4826010;29;20023;-69
2020/12/23 05:36:43;;;;;;;1.42;0.80;;;14.10;99.90;;;;;;4825748;29;20111;-70
2020/12/23 05:39:09;;;;;;;0.73;0.60;;;14.20;99.90;;;;;;4826004;29;20031;-72
2020/12/23 05:41:39;;;;;;;1.88;0.60;;;14.20;99.90;;;;;;4825935;29;20038;-71
2020/12/23 05:44:15;;;;;;;1.70;0.75;;;14.20;99.90;;;;;;4825863;29;20027;-69
2020/12/23 05:46:40;;;;;;;1.95;0.70;;;14.20;99.90;;;;;;4825775;29;20371;-69
2020/12/23 05:49:09;;;;;;;1.00;0.60;;;14.20;99.90;;;;;;4825617;29;20033;-71
2020/12/23 05:51:38;;;;;;;1.25;0.68;;;14.30;99.90;;;;;;4825063;29;20028;-71
2020/12/23 05:54:05;;;;;;;1.30;0.80;;;14.20;99.90;;;;;;4825930;29;20054;-72
2020/12/23 05:56:39;;;;;;;2.10;0.85;;;14.30;99.90;;;;;;4825839;29;20034;-71
2020/12/23 05:59:05;;;;;;;1.27;1.00;;;14.30;99.90;;;;;;4825644;29;20052;-72
2020/12/23 06:01:37;;;;;;;3.20;0.80;;;14.30;99.90;;;;;;4825669;29;20078;-71
2020/12/23 06:07:31;;;;;;;1.20;0.90;;;14.30;99.90;;;;;;4825846;29;20029;-71
2020/12/23 06:10:01;;;;;;;1.23;0.95;;;14.30;99.90;;;;;;4825812;29;20065;-72
2020/12/23 06:12:31;;;;;;;3.55;1.20;;;14.30;99.90;;;;;;4825285;29;20035;-72
2020/12/23 06:15:00;;;;;;;2.25;1.25;;;14.30;99.90;;;;;;4825297;29;20037;-71
2020/12/23 06:17:26;;;;;;;1.58;1.00;;;14.30;99.90;;;;;;4825161;29;20030;-69
2020/12/23 06:19:57;;;;;;;1.73;1.30;;;14.30;99.90;;;;;;4825469;29;20061;-71
2020/12/23 06:22:27;;;;;;;2.47;1.42;;;14.30;99.90;;;;;;4825065;29;20487;-72
2020/12/23 06:24:53;;;;;;;2.58;1.90;;;14.30;99.90;;;;;;4825081;29;20551;-69
2020/12/23 06:27:19;;;;;;;1.52;1.30;;;14.30;99.90;;;;;;4825236;29;20121;-70
2020/12/23 06:29:46;;;;;;;1.33;1.23;;;14.30;99.90;;;;;;4824908;29;20031;-70
2020/12/23 06:32:23;;;;;;;2.33;1.40;;;14.30;99.90;;;;;;4825074;29;20057;-70
2020/12/23 06:35:00;;;;;;;1.75;1.40;;;14.30;99.90;;;;;;4824824;29;20083;-69
2020/12/23 06:37:31;;;;;;;1.95;1.13;;;14.30;99.90;;;;;;4825264;29;20034;-70
2020/12/23 06:39:59;;;;;;;1.65;1.15;;;14.30;99.90;;;;;;4825203;29;20038;-70
2020/12/23 06:42:29;;;;;;;1.40;1.20;;;14.30;99.90;;;;;;4824879;29;20034;-70
2020/12/23 06:45:06;;;;;;;1.83;1.10;;;14.30;99.90;;;;;;4825128;29;20067;-70
2020/12/23 06:47:33;;;;;;;2.15;1.17;;;14.40;99.90;;;;;;4824889;29;20031;-70
2020/12/23 06:50:00;;;;;;;2.97;1.48;;;14.40;99.90;;;;;;4824820;29;20037;-69
2020/12/23 06:52:29;;;;;;;2.40;1.30;;;14.40;99.90;;;;;;4824833;29;20079;-68
2020/12/23 06:55:03;;;;;;;1.95;1.20;;;14.30;99.90;;;;;;4824759;29;20502;-69
2020/12/23 06:57:37;;;;;;;2.05;1.40;;;14.30;99.90;;;;;;4824759;29;20034;-73
2020/12/23 07:00:07;;;;;;;2.78;1.50;;;14.30;99.90;;;;;;4824671;29;20030;-69
2020/12/23 07:02:35;;;;;;;1.83;1.17;;;14.40;99.90;;;;;;4824727;29;20058;-70
2020/12/23 07:05:01;;;;;;;2.45;1.55;;;14.40;99.90;;;;;;4824603;29;20476;-71
2020/12/23 07:07:38;;;;;;;4.22;1.60;;;14.40;99.90;;;;;;4824850;29;20026;-70
2020/12/23 07:10:25;;;;;;;2.80;1.73;;;14.40;99.90;;;;;;4824524;29;20035;-70
2020/12/23 07:12:54;;;;;;;3.30;1.88;;;14.40;99.90;;;;;;4824459;29;20022;-71
2020/12/23 07:15:22;;;;;;;4.00;2.08;;;14.40;99.90;;;;;;4824654;29;20088;-69
2020/12/23 07:17:56;;;;;;;3.70;1.92;;;14.40;99.90;;;;;;4824407;29;20034;-72
2020/12/23 07:20:24;;;;;;;3.53;1.80;;;14.40;99.90;;;;;;4824418;29;20087;-74
2020/12/23 07:22:52;;;;;;;3.35;2.00;;;14.40;99.90;;;;;;4824323;29;20061;-73
2020/12/23 07:25:27;;;;;;;3.92;2.30;;;14.40;99.90;;;;;;4824461;29;20087;-72
2020/12/23 07:27:58;;;;;;;3.03;2.30;;;14.40;99.90;;;;;;4824550;29;20065;-74
2020/12/23 07:30:25;;;;;;;5.22;3.42;;;14.40;99.90;;;;;;4824472;29;20067;-60
2020/12/23 07:33:07;;;;;;;4.40;2.88;;;15.50;99.90;;;;;;4824264;29;20110;-60
2020/12/23 07:35:33;;;;;;;5.90;3.40;;;16.30;99.90;;;;;;4824155;29;20050;-61
2020/12/23 07:38:01;;;;;;;4.53;3.83;;;16.70;99.90;;;;;;4823986;29;20495;-63
2020/12/23 07:40:28;;;;;;;3.88;2.97;;;16.50;99.90;;;;;;4823931;29;20049;-60
2020/12/23 07:42:56;;;;;;;4.88;2.55;;;17.00;99.90;;;;;;4824342;29;20045;-60
2020/12/23 07:45:23;;;;;;;10.95;3.47;;;17.10;99.90;;;;;;4824267;29;20049;-63
2020/12/23 07:48:03;;;;;;;8.23;3.20;;;16.70;99.90;;;;;;4824039;29;20030;-71
2020/12/23 07:50:37;;;;;;;7.78;3.38;;;16.50;99.90;;;;;;4823801;29;20058;-71
2020/12/23 07:53:23;;;;;;;6.65;2.55;;;16.40;99.90;;;;;;4823831;29;20022;-70
2020/12/23 07:56:09;;;;;;;4.97;3.30;;;16.10;99.90;;;;;;4823700;29;20050;-69
2020/12/23 07:58:35;;;;;;;4.15;3.30;;;15.90;99.90;;;;;;4823236;29;20483;-71
2020/12/23 08:01:02;;;;;;;5.47;3.80;;;16.10;99.90;;;;;;4823653;29;20393;-70
2020/12/23 08:03:30;;;;;;;4.88;3.65;;;16.20;99.90;;;;;;4823756;29;20023;-71
2020/12/23 08:06:10;;;;;;;6.07;4.50;;;15.70;99.90;;;;;;4823963;29;20058;-73
2020/12/23 08:08:41;;;;;;;5.03;3.95;;;15.30;99.90;;;;;;4823787;29;20029;-73
2020/12/23 08:11:28;;;;;;;7.07;3.80;;;15.30;99.90;;;;;;4823809;29;20384;-73
2020/12/23 08:13:54;;;;;;;5.25;3.95;;;15.70;99.90;;;;;;4822711;29;20103;-78
2020/12/23 08:16:20;;;;;;;4.97;4.32;;;15.10;99.90;;;;;;4822674;29;20046;-81
2020/12/23 08:18:52;;;;;;;4.88;4.25;;;14.70;99.90;;;;;;4823490;29;20066;-82
2020/12/23 08:21:17;;;;;;;8.23;3.95;;;14.50;99.90;;;;;;4823557;29;20092;-76
2020/12/23 08:23:46;;;;;;;6.45;4.03;;;14.20;99.90;;;;;;4821992;29;20026;-79
2020/12/23 08:26:13;;;;;;;6.25;3.80;;;14.00;99.90;;;;;;4822852;29;20026;-79
2020/12/23 08:28:40;;;;;;;8.43;4.20;;;13.90;99.90;;;;;;4823586;29;20031;-82
2020/12/23 08:31:10;;;;;;;6.53;4.28;;;13.90;99.90;;;;;;4823205;29;20420;-79
2020/12/23 08:33:37;;;;;;;4.18;3.00;;;13.80;99.90;;;;;;4823159;29;20033;-82
2020/12/23 08:36:04;;;;;;;4.55;3.65;;;13.80;99.90;;;;;;4822643;29;20392;-80
2020/12/23 08:38:30;;;;;;;4.18;3.42;;;13.80;99.90;;;;;;4823110;29;20086;-83
2020/12/23 08:40:58;;;;;;;3.58;2.70;;;13.60;99.90;;;;;;4823259;29;20066;-81
2020/12/23 08:43:25;;;;;;;3.47;2.67;;;13.60;99.90;;;;;;4823351;29;20030;-82
2020/12/23 08:45:51;;;;;;;4.97;2.22;;;13.60;99.90;;;;;;4823342;29;20022;-80
2020/12/23 08:48:27;;;;;;;3.67;2.10;;;13.60;99.90;;;;;;4822901;29;20090;-81
2020/12/23 08:51:04;;;;;;;5.32;2.10;;;13.60;99.90;;;;;;4823011;29;20041;-81
2020/12/23 08:53:37;;;;;;;3.45;2.03;;;13.60;99.90;;;;;;4823694;29;20034;-80
2020/12/23 08:56:23;;;;;;;3.30;2.30;;;13.50;99.90;;;;;;4823371;29;20395;-82
2020/12/23 08:58:58;;;;;;;4.60;2.30;;;13.50;99.90;;;;;;4823326;29;20092;-82
2020/12/23 09:01:25;;;;;;;4.25;2.40;;;13.50;99.90;;;;;;4822931;29;20488;-82
2020/12/23 09:03:57;;;;;;;3.20;2.45;;;13.50;99.90;;;;;;4822876;29;20037;-81
2020/12/23 09:06:23;;;;;;;4.13;3.03;;;13.50;99.90;;;;;;4822824;29;20030;-80
2020/12/23 09:08:49;;;;;;;3.45;2.83;;;13.50;99.90;;;;;;4822901;29;20126;-81
2020/12/23 09:11:14;;;;;;;5.03;3.20;;;13.50;99.90;;;;;;4822855;29;20506;-81
2020/12/23 09:13:40;;;;;;;4.18;3.00;;;13.60;99.90;;;;;;4822788;29;20127;-82
2020/12/23 09:16:05;;;;;;;5.00;3.53;;;13.60;99.90;;;;;;4822801;29;20057;-81
2020/12/23 09:18:31;;;;;;;4.43;3.28;;;13.50;99.90;;;;;;4822788;29;20074;-82
2020/12/23 09:21:02;;;;;;;4.07;3.63;;;13.60;99.90;;;;;;4822870;29;20038;-81
2020/12/23 09:23:28;;;;;;;6.13;3.70;;;13.60;99.90;;;;;;4823113;29;20026;-81
2020/12/23 09:25:55;;;;;;;3.92;3.00;;;13.60;99.90;;;;;;4823661;29;20035;-81
2020/12/23 09:28:23;;;;;;;5.35;3.28;;;13.60;99.90;;;;;;4826160;29;20593;-79
2020/12/23 09:30:58;;;;;;;3.95;2.88;;;13.60;99.90;;;;;;4826365;29;20062;-82
2020/12/23 09:33:24;;;;;;;6.15;3.00;;;13.60;99.90;;;;;;4825804;29;20023;-81
2020/12/23 09:36:04;;;;;;;5.38;2.97;;;13.60;99.90;;;;;;4825676;29;20054;-80
2020/12/23 09:38:36;;;;;;;4.82;3.10;;;13.50;99.90;;;;;;4825812;29;20432;-80
2020/12/23 09:41:04;;;;;;;5.30;3.00;;;13.60;99.90;;;;;;4825782;29;20038;-80
2020/12/23 09:43:32;;;;;;;6.85;3.40;;;13.60;99.90;;;;;;4825711;29;20414;-75
2020/12/23 09:46:02;;;;;;;6.40;3.08;;;13.50;99.90;;;;;;4825811;29;20511;-74
2020/12/23 09:48:28;;;;;;;5.47;2.85;;;13.60;99.90;;;;;;4825717;29;20031;-75
2020/12/23 09:50:55;;;;;;;5.35;2.40;;;13.60;99.90;;;;;;4825547;29;20031;-74
2020/12/23 09:53:25;;;;;;;4.30;1.95;;;13.60;99.90;;;;;;4825696;29;20051;-74
2020/12/23 09:55:52;;;;;;;4.20;2.10;;;13.60;99.90;;;;;;4825127;29;20037;-75
2020/12/23 09:58:18;;;;;;;3.17;2.13;;;13.70;99.90;;;;;;4825603;29;20038;-75
2020/12/23 10:00:46;;;;;;;4.13;2.35;;;13.60;99.90;;;;;;4825497;29;20027;-74
2020/12/23 10:03:12;;;;;;;4.18;2.50;;;13.60;99.90;;;;;;4825506;29;20070;-75
2020/12/23 10:09:01;;;;;;;4.60;2.20;;;13.60;99.90;;;;;;4825152;29;20071;-74
2020/12/23 10:11:27;;;;;;;4.60;2.58;;;13.60;99.90;;;;;;4824957;29;20429;-73
2020/12/23 10:13:53;;;;;;;3.45;2.08;;;13.60;99.90;;;;;;4825311;29;20391;-74
2020/12/23 10:16:18;;;;;;;4.03;1.88;;;13.50;99.90;;;;;;4825243;29;20038;-75
2020/12/23 10:18:44;;;;;;;5.45;2.00;;;13.40;99.90;;;;;;4824858;29;20026;-72
2020/12/23 10:21:10;;;;;;;5.63;2.05;;;13.50;99.90;;;;;;4825055;29;20046;-74
2020/12/23 10:23:35;;;;;;;4.13;1.70;;;13.40;99.90;;;;;;4824829;29;20472;-75
2020/12/23 10:26:01;;;;;;;3.15;1.90;;;13.40;99.90;;;;;;4824855;29;20041;-74
2020/12/23 10:28:27;;;;;;;4.53;1.73;;;13.40;99.90;;;;;;4824808;29;20035;-74
2020/12/23 10:30:52;;;;;;;2.97;1.80;;;13.50;99.90;;;;;;4824748;29;20035;-74
2020/12/23 10:33:18;;;;;;;3.25;2.25;;;13.50;99.90;;;;;;4825107;29;20049;-73
2020/12/23 10:39:47;;;;;;;4.63;2.40;;;13.60;99.90;;;;;;4824083;29;20053;-75
2020/12/23 10:42:13;;;;;;;5.70;2.50;;;13.50;99.90;;;;;;4824683;29;20046;-74
2020/12/23 10:44:39;;;;;;;3.35;2.25;;;13.60;99.90;;;;;;4824550;29;20123;-75
2020/12/23 10:47:04;;;;;;;4.60;2.47;;;13.60;99.90;;;;;;4824853;29;20031;-75
2020/12/23 10:49:30;;;;;;;3.38;2.38;;;13.70;99.90;;;;;;4824517;29;20030;-74
2020/12/23 10:51:57;;;;;;;4.22;2.22;;;13.80;99.90;;;;;;4824487;29;20038;-76
2020/12/23 10:54:28;;;;;;;7.20;2.97;;;13.90;99.90;;;;;;4824754;29;20152;-75
2020/12/23 10:56:54;;;;;;;4.13;2.88;;;13.80;99.90;;;;;;4824064;29;20035;-76
2020/12/23 10:59:20;;;;;;;4.50;3.40;;;13.80;99.90;;;;;;4824711;29;20119;-75
2020/12/23 11:01:52;;;;;;;5.30;3.42;;;13.80;99.90;;;;;;4824470;29;20085;-76
2020/12/23 11:04:18;;;;;;;7.13;4.35;;;13.90;99.90;;;;;;4807795;29;20029;-75
2020/12/23 11:06:43;;;;;;;7.15;4.00;;;13.80;99.90;;;;;;4824427;29;20039;-75
2020/12/23 11:09:09;;;;;;;8.18;4.65;;;13.80;99.90;;;;;;4824347;29;20054;-76
2020/12/23 11:11:34;;;;;;;10.68;4.78;;;13.70;99.90;;;;;;4824094;29;20554;-72
2020/12/23 11:14:00;;;;;;;7.05;4.70;;;13.70;99.90;;;;;;4824280;29;20510;-73
2020/12/23 11:16:27;;;;;;;7.20;3.90;;;13.70;99.90;;;;;;4824229;29;20561;-75
2020/12/23 11:18:53;;;;;;;5.88;3.10;;;13.70;99.90;;;;;;4823953;29;20037;-72
2020/12/23 11:21:18;;;;;;;6.50;2.92;;;13.90;99.90;;;;;;4823895;29;20039;-76
2020/12/23 11:23:44;;;;;;;4.13;2.15;;;13.80;99.90;;;;;;4823894;29;20039;-75
2020/12/23 11:26:20;;;;;;;3.13;1.80;;;13.80;99.90;;;;;;4824107;29;20038;-75
2020/12/23 11:28:46;;;;;;;3.38;1.83;;;13.70;99.90;;;;;;4824002;29;20030;-71
2020/12/23 11:31:13;;;;;;;4.13;1.63;;;13.70;99.90;;;;;;4823888;29;20132;-74
2020/12/23 11:33:39;;;;;;;2.38;1.10;;;13.70;99.90;;;;;;4823716;29;20023;-75
2020/12/23 11:39:27;;;;;;;5.53;1.55;;;13.80;99.90;;;;;;4823273;29;20104;-72
2020/12/23 11:41:57;;;;;;;2.50;1.30;;;13.80;99.90;;;;;;4823623;29;20042;-72
2020/12/23 11:44:24;;;;;;;2.63;1.10;;;13.80;99.90;;;;;;4823903;29;20027;-73
2020/12/23 11:46:49;;;;;;;3.38;1.42;;;13.80;99.90;;;;;;4823632;29;20502;-74
2020/12/23 11:49:15;;;;;;;2.72;1.50;;;13.80;99.90;;;;;;4822852;29;20034;-76
2020/12/23 11:51:41;;;;;;;4.13;2.10;;;13.90;99.90;;;;;;4823912;29;20086;-74
2020/12/23 11:54:07;;;;;;;4.40;2.00;;;13.90;99.90;;;;;;4823756;29;20030;-73
2020/12/23 11:56:34;;;;;;;5.47;2.10;;;13.80;99.90;;;;;;4823579;29;20057;-73
2020/12/23 11:58:59;;;;;;;2.88;1.95;;;13.90;99.90;;;;;;4823351;29;20018;-72
2020/12/23 12:01:25;;;;;;;4.45;1.85;;;13.90;99.90;;;;;;4823365;29;20446;-75
2020/12/23 12:03:50;;;;;;;3.92;1.80;;;14.00;99.90;;;;;;4823483;29;20037;-75
2020/12/23 12:09:39;;;;;;;2.55;1.70;;;13.90;99.90;;;;;;4823802;29;20099;-74
2020/12/23 12:12:04;;;;;;;4.07;1.67;;;13.90;99.90;;;;;;4823673;29;20042;-72
2020/12/23 12:14:30;;;;;;;3.13;1.67;;;13.80;99.90;;;;;;4823517;29;20357;-71
2020/12/23 12:16:56;;;;;;;2.80;1.70;;;13.80;99.90;;;;;;4823504;29;20040;-76
2020/12/23 12:19:22;;;;;;;2.20;1.23;;;13.80;99.90;;;;;;4823200;29;20369;-64
2020/12/23 12:21:48;;;;;;;2.65;1.05;;;15.00;99.90;;;;;;4823381;29;20088;-64
2020/12/23 12:24:14;;;;;;;3.03;0.98;;;16.50;99.90;;;;;;4823142;29;20037;-61
2020/12/23 12:26:39;;;;;;;2.65;1.20;;;17.10;99.90;;;;;;4823454;29;20070;-62
2020/12/23 12:29:05;;;;;;;2.60;1.30;;;17.30;99.90;;;;;;4823354;29;20423;-60
2020/12/23 12:31:31;;;;;;;2.30;1.13;;;17.30;99.90;;;;;;4823189;29;20049;-65
2020/12/23 12:33:57;;;;;;;1.92;1.00;;;17.30;99.90;;;;;;4823268;29;20072;-63
2020/12/23 12:39:45;;;;;;;4.38;1.27;;;17.60;99.90;;;;;;4822578;29;20104;-61
2020/12/23 12:42:11;;;;;;;2.80;1.20;;;17.70;99.90;;;;;;4822561;29;20042;-62
2020/12/23 12:44:36;;;;;;;38.55;24.40;;;18.00;99.90;;;;;;4823325;29;20026;-64
2020/12/23 12:47:02;;;;;;;4.88;1.60;;;17.70;99.90;;;;;;4823296;29;20083;-63
2020/12/23 12:49:28;;;;;;;2.88;1.17;;;18.00;99.90;;;;;;4823118;29;20381;-64
2020/12/23 12:51:55;;;;;;;2.35;1.10;;;17.90;99.90;;;;;;4822817;29;20125;-63
2020/12/23 12:54:21;;;;;;;5.75;1.50;;;18.30;99.90;;;;;;4822932;29;20050;-60
2020/12/23 12:56:46;;;;;;;5.68;2.38;;;18.20;99.90;;;;;;4823094;29;20069;-63
2020/12/23 12:59:12;;;;;;;6.38;2.35;;;17.60;99.90;;;;;;4822727;29;20114;-61
2020/12/23 13:01:39;;;;;;;8.02;3.30;;;17.80;99.90;;;;;;4825541;29;20578;-63
2020/12/23 13:04:06;;;;;;;8.32;3.40;;;18.00;99.90;;;;;;4826050;29;20031;-61
2020/12/23 13:09:53;;;;;;;4.63;2.33;;;17.90;99.90;;;;;;4826272;29;20072;-74
2020/12/23 13:12:19;;;;;;;3.28;1.35;;;17.90;99.90;;;;;;4826335;29;20050;-72
2020/12/23 13:14:45;;;;;;;2.17;1.20;;;16.50;99.90;;;;;;4826308;29;20034;-73
2020/12/23 13:17:11;;;;;;;1.77;1.20;;;15.80;99.90;;;;;;4826150;29;20027;-72
2020/12/23 13:19:37;;;;;;;2.35;1.02;;;15.50;99.90;;;;;;4826051;29;20464;-72
2020/12/23 13:22:02;;;;;;;2.92;1.02;;;15.20;99.90;;;;;;4826032;29;20088;-72
2020/12/23 13:24:28;;;;;;;1.73;1.10;;;15.00;99.90;;;;;;4825769;29;20026;-72
2020/12/23 13:26:56;;;;;;;1.60;0.90;;;15.00;99.90;;;;;;4825808;29;20043;-71
2020/12/23 13:29:22;;;;;;;2.72;1.00;;;14.90;99.90;;;;;;4826183;29;20070;-72
2020/12/23 13:31:48;;;;;;;2.35;0.88;;;14.90;99.90;;;;;;4825704;29;20424;-72
2020/12/23 13:34:15;;;;;;;1.70;0.85;;;15.00;99.90;;;;;;4825984;29;20159;-72
2020/12/23 13:40:05;;;;;;;1.83;1.10;;;14.60;99.90;;;;;;4825173;29;20065;-71
2020/12/23 13:42:30;;;;;;;2.35;1.15;;;14.60;99.90;;;;;;4825750;29;20116;-73
2020/12/23 13:44:56;;;;;;;1.00;0.90;;;14.70;99.90;;;;;;4825732;29;20034;-71
2020/12/23 13:47:22;;;;;;;1.77;1.25;;;14.90;99.90;;;;;;4825328;29;20105;-72
2020/12/23 13:49:47;;;;;;;1.80;1.02;;;14.80;99.90;;;;;;4825709;29;20471;-71
2020/12/23 13:52:13;;;;;;;2.30;1.13;;;14.70;99.90;;;;;;4825514;29;20087;-74
2020/12/23 13:54:39;;;;;;;2.78;1.25;;;14.60;99.90;;;;;;4825781;29;20031;-72